sensor_id;sensor_type;location;lat;lon;timestamp;temperature;humidity
45409;DHT22;31162;51.076;3.784;2023-03-14T00:02:26;11.10;99.90
45409;DHT22;31162;51.076;3.784;2023-03-14T00:04:54;11.10;99.90
45409;DHT22;31162;51.076;3.784;2023-03-14T00:07:21;11.00;99.90
45409;DHT22;31162;51.076;3.784;2023-03-14T00:09:50;10.90;99.90
45409;DHT22;31162;51.076;3.784;2023-03-14T00:12:15;10.90;99.90
45409;DHT22;31162;51.076;3.784;2023-03-14T00:14:41;10.80;99.90
45409;DHT22;31162;51.076;3.784;2023-03-14T00:17:08;10.80;99.90
45409;DHT22;31162;51.076;3.784;2023-03-14T00:19:34;10.80;99.90
45409;DHT22;31162;51.076;3.784;2023-03-14T00:21:59;10.70;99.90
45409;DHT22;31162;51.076;3.784;2023-03-14T00:24:25;10.80;99.90
45409;DHT22;31162;51.076;3.784;2023-03-14T00:26:51;10.90;99.90
45409;DHT22;31162;51.076;3.784;2023-03-14T00:29:16;10.90;99.90
45409;DHT22;31162;51.076;3.784;2023-03-14T00:31:42;10.90;99.90
45409;DHT22;31162;51.076;3.784;2023-03-14T00:34:07;10.90;99.90
45409;DHT22;31162;51.076;3.784;2023-03-14T00:36:33;10.80;99.90
45409;DHT22;31162;51.076;3.784;2023-03-14T00:38:59;10.80;99.90
45409;DHT22;31162;51.076;3.784;2023-03-14T00:41:25;10.80;99.90
45409;DHT22;31162;51.076;3.784;2023-03-14T00:43:51;10.80;99.90
45409;DHT22;31162;51.076;3.784;2023-03-14T00:46:17;10.80;99.90
45409;DHT22;31162;51.076;3.784;2023-03-14T00:48:45;10.70;99.90
45409;DHT22;31162;51.076;3.784;2023-03-14T00:51:12;10.80;99.90
45409;DHT22;31162;51.076;3.784;2023-03-14T00:53:41;10.80;99.90
45409;DHT22;31162;51.076;3.784;2023-03-14T00:56:10;10.90;99.90
45409;DHT22;31162;51.076;3.784;2023-03-14T00:58:36;10.80;99.90
45409;DHT22;31162;51.076;3.784;2023-03-14T01:01:06;10.80;99.90
45409;DHT22;31162;51.076;3.784;2023-03-14T01:03:32;10.70;99.90
45409;DHT22;31162;51.076;3.784;2023-03-14T01:06:27;10.80;99.90
45409;DHT22;31162;51.076;3.784;2023-03-14T01:08:54;10.80;99.90
45409;DHT22;31162;51.076;3.784;2023-03-14T01:11:22;10.80;99.90
45409;DHT22;31162;51.076;3.784;2023-03-14T01:13:49;10.70;99.90
45409;DHT22;31162;51.076;3.784;2023-03-14T01:16:17;10.80;99.90
45409;DHT22;31162;51.076;3.784;2023-03-14T01:18:44;10.90;99.90
45409;DHT22;31162;51.076;3.784;2023-03-14T01:21:16;10.90;99.90
45409;DHT22;31162;51.076;3.784;2023-03-14T01:23:42;10.90;99.90
45409;DHT22;31162;51.076;3.784;2023-03-14T01:26:10;11.00;99.90
45409;DHT22;31162;51.076;3.784;2023-03-14T01:28:36;10.80;99.90
45409;DHT22;31162;51.076;3.784;2023-03-14T01:31:06;10.80;99.90
45409;DHT22;31162;51.076;3.784;2023-03-14T01:33:33;10.70;99.90
45409;DHT22;31162;51.076;3.784;2023-03-14T01:35:58;10.70;99.90
45409;DHT22;31162;51.076;3.784;2023-03-14T01:38:24;10.70;99.90
45409;DHT22;31162;51.076;3.784;2023-03-14T01:40:50;10.60;99.90
45409;DHT22;31162;51.076;3.784;2023-03-14T01:43:17;10.60;99.90
45409;DHT22;31162;51.076;3.784;2023-03-14T01:48:44;10.50;99.90
45409;DHT22;31162;51.076;3.784;2023-03-14T01:51:22;10.60;99.90
45409;DHT22;31162;51.076;3.784;2023-03-14T01:53:51;10.60;99.90
45409;DHT22;31162;51.076;3.784;2023-03-14T01:56:19;10.70;99.90
45409;DHT22;31162;51.076;3.784;2023-03-14T01:58:48;10.80;99.90
45409;DHT22;31162;51.076;3.784;2023-03-14T02:01:18;10.90;99.90
45409;DHT22;31162;51.076;3.784;2023-03-14T02:03:56;11.00;99.90
45409;DHT22;31162;51.076;3.784;2023-03-14T02:06:27;11.00;99.90
45409;DHT22;31162;51.076;3.784;2023-03-14T02:08:54;11.10;99.90
45409;DHT22;31162;51.076;3.784;2023-03-14T02:11:21;11.10;99.90
45409;DHT22;31162;51.076;3.784;2023-03-14T02:13:47;11.10;99.90
45409;DHT22;31162;51.076;3.784;2023-03-14T02:16:13;11.10;99.90
45409;DHT22;31162;51.076;3.784;2023-03-14T02:18:39;11.10;99.90
45409;DHT22;31162;51.076;3.784;2023-03-14T02:21:25;11.10;99.90
45409;DHT22;31162;51.076;3.784;2023-03-14T02:24:20;11.20;99.90
45409;DHT22;31162;51.076;3.784;2023-03-14T02:29:33;11.00;99.90
45409;DHT22;31162;51.076;3.784;2023-03-14T02:32:02;10.90;99.90
45409;DHT22;31162;51.076;3.784;2023-03-14T02:34:27;10.90;99.90
45409;DHT22;31162;51.076;3.784;2023-03-14T02:36:54;11.00;99.90
45409;DHT22;31162;51.076;3.784;2023-03-14T02:39:26;11.00;99.90
45409;DHT22;31162;51.076;3.784;2023-03-14T02:41:53;11.00;99.90
45409;DHT22;31162;51.076;3.784;2023-03-14T02:44:19;11.00;99.90
45409;DHT22;31162;51.076;3.784;2023-03-14T02:46:45;10.90;99.90
45409;DHT22;31162;51.076;3.784;2023-03-14T02:49:12;10.80;99.90
45409;DHT22;31162;51.076;3.784;2023-03-14T02:51:39;10.60;99.90
45409;DHT22;31162;51.076;3.784;2023-03-14T02:54:07;10.50;99.90
45409;DHT22;31162;51.076;3.784;2023-03-14T02:56:33;10.50;99.90
45409;DHT22;31162;51.076;3.784;2023-03-14T02:58:58;10.50;99.90
45409;DHT22;31162;51.076;3.784;2023-03-14T03:01:24;10.40;99.90
45409;DHT22;31162;51.076;3.784;2023-03-14T03:03:50;10.50;99.90
45409;DHT22;31162;51.076;3.784;2023-03-14T03:06:16;10.60;99.90
45409;DHT22;31162;51.076;3.784;2023-03-14T03:08:41;10.70;99.90
45409;DHT22;31162;51.076;3.784;2023-03-14T03:11:07;10.80;99.90
45409;DHT22;31162;51.076;3.784;2023-03-14T03:13:33;10.70;99.90
45409;DHT22;31162;51.076;3.784;2023-03-14T03:15:59;10.70;99.90
45409;DHT22;31162;51.076;3.784;2023-03-14T03:18:25;10.70;99.90
45409;DHT22;31162;51.076;3.784;2023-03-14T03:20:50;10.70;99.90
45409;DHT22;31162;51.076;3.784;2023-03-14T03:23:16;10.80;99.90
45409;DHT22;31162;51.076;3.784;2023-03-14T03:25:42;10.90;99.90
45409;DHT22;31162;51.076;3.784;2023-03-14T03:28:08;11.00;99.90
45409;DHT22;31162;51.076;3.784;2023-03-14T03:30:40;10.90;99.90
45409;DHT22;31162;51.076;3.784;2023-03-14T03:33:06;11.00;99.90
45409;DHT22;31162;51.076;3.784;2023-03-14T03:35:31;10.90;99.90
45409;DHT22;31162;51.076;3.784;2023-03-14T03:37:57;10.90;99.90
45409;DHT22;31162;51.076;3.784;2023-03-14T03:40:23;11.10;99.90
45409;DHT22;31162;51.076;3.784;2023-03-14T03:42:48;11.00;99.90
45409;DHT22;31162;51.076;3.784;2023-03-14T03:45:14;11.10;99.90
45409;DHT22;31162;51.076;3.784;2023-03-14T03:47:40;11.10;99.90
45409;DHT22;31162;51.076;3.784;2023-03-14T03:50:06;11.20;99.90
45409;DHT22;31162;51.076;3.784;2023-03-14T03:52:31;11.00;99.90
45409;DHT22;31162;51.076;3.784;2023-03-14T03:54:57;11.10;99.90
45409;DHT22;31162;51.076;3.784;2023-03-14T03:57:23;11.20;99.90
45409;DHT22;31162;51.076;3.784;2023-03-14T03:59:49;11.20;99.90
45409;DHT22;31162;51.076;3.784;2023-03-14T04:02:14;11.20;99.90
45409;DHT22;31162;51.076;3.784;2023-03-14T04:04:40;11.20;99.90
45409;DHT22;31162;51.076;3.784;2023-03-14T04:07:05;11.20;99.90
45409;DHT22;31162;51.076;3.784;2023-03-14T04:09:31;11.20;99.90
45409;DHT22;31162;51.076;3.784;2023-03-14T04:11:57;11.10;99.90
45409;DHT22;31162;51.076;3.784;2023-03-14T04:14:23;11.00;99.90
45409;DHT22;31162;51.076;3.784;2023-03-14T04:16:49;11.00;99.90
45409;DHT22;31162;51.076;3.784;2023-03-14T04:19:14;11.00;99.90
45409;DHT22;31162;51.076;3.784;2023-03-14T04:21:40;11.00;99.90
45409;DHT22;31162;51.076;3.784;2023-03-14T04:24:10;11.00;99.90
45409;DHT22;31162;51.076;3.784;2023-03-14T04:26:36;11.10;99.90
45409;DHT22;31162;51.076;3.784;2023-03-14T04:29:01;11.10;99.90
45409;DHT22;31162;51.076;3.784;2023-03-14T04:31:28;11.10;99.90
45409;DHT22;31162;51.076;3.784;2023-03-14T04:33:53;11.10;99.90
45409;DHT22;31162;51.076;3.784;2023-03-14T04:36:19;11.00;99.90
45409;DHT22;31162;51.076;3.784;2023-03-14T04:38:45;11.00;99.90
45409;DHT22;31162;51.076;3.784;2023-03-14T04:41:10;11.00;99.90
45409;DHT22;31162;51.076;3.784;2023-03-14T04:43:36;11.00;99.90
45409;DHT22;31162;51.076;3.784;2023-03-14T04:46:02;11.00;99.90
45409;DHT22;31162;51.076;3.784;2023-03-14T04:48:27;10.90;99.90
45409;DHT22;31162;51.076;3.784;2023-03-14T04:50:54;11.00;99.90
45409;DHT22;31162;51.076;3.784;2023-03-14T04:53:20;11.00;99.90
45409;DHT22;31162;51.076;3.784;2023-03-14T04:55:50;11.10;99.90
45409;DHT22;31162;51.076;3.784;2023-03-14T04:58:16;11.10;99.90
45409;DHT22;31162;51.076;3.784;2023-03-14T05:00:42;11.10;99.90
45409;DHT22;31162;51.076;3.784;2023-03-14T05:03:07;11.20;99.90
45409;DHT22;31162;51.076;3.784;2023-03-14T05:05:33;11.20;99.90
45409;DHT22;31162;51.076;3.784;2023-03-14T05:07:59;11.20;99.90
45409;DHT22;31162;51.076;3.784;2023-03-14T05:10:25;11.30;99.90
45409;DHT22;31162;51.076;3.784;2023-03-14T05:12:51;11.20;99.90
45409;DHT22;31162;51.076;3.784;2023-03-14T05:15:16;11.10;99.90
45409;DHT22;31162;51.076;3.784;2023-03-14T05:17:42;11.10;99.90
45409;DHT22;31162;51.076;3.784;2023-03-14T05:20:08;11.00;99.90
45409;DHT22;31162;51.076;3.784;2023-03-14T05:22:34;10.90;99.90
45409;DHT22;31162;51.076;3.784;2023-03-14T05:25:00;10.80;99.90
45409;DHT22;31162;51.076;3.784;2023-03-14T05:27:26;10.70;99.90
45409;DHT22;31162;51.076;3.784;2023-03-14T05:29:51;10.60;99.90
45409;DHT22;31162;51.076;3.784;2023-03-14T05:32:17;10.70;99.90
45409;DHT22;31162;51.076;3.784;2023-03-14T05:34:43;10.80;99.90
45409;DHT22;31162;51.076;3.784;2023-03-14T05:37:08;10.80;99.90
45409;DHT22;31162;51.076;3.784;2023-03-14T05:39:34;10.80;99.90
45409;DHT22;31162;51.076;3.784;2023-03-14T05:42:00;10.70;99.90
45409;DHT22;31162;51.076;3.784;2023-03-14T05:44:25;10.70;99.90
45409;DHT22;31162;51.076;3.784;2023-03-14T05:46:51;10.80;99.90
45409;DHT22;31162;51.076;3.784;2023-03-14T05:49:16;10.90;99.90
45409;DHT22;31162;51.076;3.784;2023-03-14T05:51:42;10.70;99.90
45409;DHT22;31162;51.076;3.784;2023-03-14T05:54:08;10.40;99.90
45409;DHT22;31162;51.076;3.784;2023-03-14T05:56:34;10.20;99.90
45409;DHT22;31162;51.076;3.784;2023-03-14T05:58:59;10.00;99.90
45409;DHT22;31162;51.076;3.784;2023-03-14T06:01:27;9.80;99.90
45409;DHT22;31162;51.076;3.784;2023-03-14T06:03:53;9.70;99.90
45409;DHT22;31162;51.076;3.784;2023-03-14T06:06:18;9.60;99.90
45409;DHT22;31162;51.076;3.784;2023-03-14T06:08:44;9.50;99.90
45409;DHT22;31162;51.076;3.784;2023-03-14T06:11:10;9.50;99.90
45409;DHT22;31162;51.076;3.784;2023-03-14T06:13:35;9.50;99.90
45409;DHT22;31162;51.076;3.784;2023-03-14T06:16:01;9.40;99.90
45409;DHT22;31162;51.076;3.784;2023-03-14T06:18:27;9.20;99.90
45409;DHT22;31162;51.076;3.784;2023-03-14T06:20:56;9.00;99.90
45409;DHT22;31162;51.076;3.784;2023-03-14T06:23:22;8.90;99.90
45409;DHT22;31162;51.076;3.784;2023-03-14T06:25:48;8.80;99.90
45409;DHT22;31162;51.076;3.784;2023-03-14T06:28:14;8.80;99.90
45409;DHT22;31162;51.076;3.784;2023-03-14T06:30:39;8.70;99.90
45409;DHT22;31162;51.076;3.784;2023-03-14T06:33:05;8.80;99.90
45409;DHT22;31162;51.076;3.784;2023-03-14T06:35:31;8.80;99.90
45409;DHT22;31162;51.076;3.784;2023-03-14T06:37:56;8.70;99.90
45409;DHT22;31162;51.076;3.784;2023-03-14T06:40:22;8.80;99.90
45409;DHT22;31162;51.076;3.784;2023-03-14T06:42:48;8.80;99.90
45409;DHT22;31162;51.076;3.784;2023-03-14T06:45:14;8.80;99.90
45409;DHT22;31162;51.076;3.784;2023-03-14T06:47:40;8.70;99.90
45409;DHT22;31162;51.076;3.784;2023-03-14T06:50:06;8.80;99.90
45409;DHT22;31162;51.076;3.784;2023-03-14T06:52:32;8.80;99.90
45409;DHT22;31162;51.076;3.784;2023-03-14T06:54:59;8.90;99.90
45409;DHT22;31162;51.076;3.784;2023-03-14T06:57:24;9.00;99.90
45409;DHT22;31162;51.076;3.784;2023-03-14T06:59:50;9.00;99.90
45409;DHT22;31162;51.076;3.784;2023-03-14T07:02:16;9.00;99.90
45409;DHT22;31162;51.076;3.784;2023-03-14T07:04:42;9.00;99.90
45409;DHT22;31162;51.076;3.784;2023-03-14T07:07:08;9.10;99.90
45409;DHT22;31162;51.076;3.784;2023-03-14T07:09:34;9.10;99.90
45409;DHT22;31162;51.076;3.784;2023-03-14T07:12:00;9.10;99.90
45409;DHT22;31162;51.076;3.784;2023-03-14T07:14:26;9.00;99.90
45409;DHT22;31162;51.076;3.784;2023-03-14T07:16:52;8.90;99.90
45409;DHT22;31162;51.076;3.784;2023-03-14T07:19:18;8.90;99.90
45409;DHT22;31162;51.076;3.784;2023-03-14T07:21:43;8.80;99.90
45409;DHT22;31162;51.076;3.784;2023-03-14T07:24:09;8.70;99.90
45409;DHT22;31162;51.076;3.784;2023-03-14T07:26:35;8.70;99.90
45409;DHT22;31162;51.076;3.784;2023-03-14T07:29:00;8.70;99.90
45409;DHT22;31162;51.076;3.784;2023-03-14T07:31:29;8.70;99.90
45409;DHT22;31162;51.076;3.784;2023-03-14T07:33:56;8.70;99.90
45409;DHT22;31162;51.076;3.784;2023-03-14T07:36:21;8.70;99.90
45409;DHT22;31162;51.076;3.784;2023-03-14T07:38:47;8.80;99.90
45409;DHT22;31162;51.076;3.784;2023-03-14T07:41:13;8.80;99.90
45409;DHT22;31162;51.076;3.784;2023-03-14T07:43:39;8.70;99.90
45409;DHT22;31162;51.076;3.784;2023-03-14T07:46:05;8.60;99.90
45409;DHT22;31162;51.076;3.784;2023-03-14T07:48:31;8.60;99.90
45409;DHT22;31162;51.076;3.784;2023-03-14T07:50:57;8.50;99.90
45409;DHT22;31162;51.076;3.784;2023-03-14T07:53:23;8.60;99.90
45409;DHT22;31162;51.076;3.784;2023-03-14T07:55:51;8.50;99.90
45409;DHT22;31162;51.076;3.784;2023-03-14T07:58:17;8.50;99.90
45409;DHT22;31162;51.076;3.784;2023-03-14T08:00:43;8.50;99.90
45409;DHT22;31162;51.076;3.784;2023-03-14T08:03:09;8.40;99.90
45409;DHT22;31162;51.076;3.784;2023-03-14T08:05:36;8.50;99.90
45409;DHT22;31162;51.076;3.784;2023-03-14T08:08:02;8.50;99.90
45409;DHT22;31162;51.076;3.784;2023-03-14T08:10:28;8.40;99.90
45409;DHT22;31162;51.076;3.784;2023-03-14T08:12:56;8.40;99.90
45409;DHT22;31162;51.076;3.784;2023-03-14T08:15:22;8.40;99.90
45409;DHT22;31162;51.076;3.784;2023-03-14T08:17:49;8.40;99.90
45409;DHT22;31162;51.076;3.784;2023-03-14T08:20:21;8.50;99.90
45409;DHT22;31162;51.076;3.784;2023-03-14T08:22:47;8.50;99.90
45409;DHT22;31162;51.076;3.784;2023-03-14T08:25:14;8.40;99.90
45409;DHT22;31162;51.076;3.784;2023-03-14T08:27:39;8.40;99.90
45409;DHT22;31162;51.076;3.784;2023-03-14T08:30:09;8.40;99.90
45409;DHT22;31162;51.076;3.784;2023-03-14T08:32:35;8.30;99.90
45409;DHT22;31162;51.076;3.784;2023-03-14T08:35:01;8.30;99.90
45409;DHT22;31162;51.076;3.784;2023-03-14T08:37:28;8.40;99.90
45409;DHT22;31162;51.076;3.784;2023-03-14T08:39:53;8.40;99.90
45409;DHT22;31162;51.076;3.784;2023-03-14T08:42:19;8.70;99.90
45409;DHT22;31162;51.076;3.784;2023-03-14T08:44:45;8.90;99.90
45409;DHT22;31162;51.076;3.784;2023-03-14T08:47:11;9.00;99.90
45409;DHT22;31162;51.076;3.784;2023-03-14T08:49:36;9.10;99.90
45409;DHT22;31162;51.076;3.784;2023-03-14T08:52:03;9.10;99.90
45409;DHT22;31162;51.076;3.784;2023-03-14T08:54:30;9.10;99.90
45409;DHT22;31162;51.076;3.784;2023-03-14T08:56:56;9.10;99.90
45409;DHT22;31162;51.076;3.784;2023-03-14T08:59:22;9.10;99.90
45409;DHT22;31162;51.076;3.784;2023-03-14T09:01:47;9.20;99.90
45409;DHT22;31162;51.076;3.784;2023-03-14T09:04:13;9.30;99.90
45409;DHT22;31162;51.076;3.784;2023-03-14T09:06:39;9.20;99.90
45409;DHT22;31162;51.076;3.784;2023-03-14T09:09:05;9.50;99.90
45409;DHT22;31162;51.076;3.784;2023-03-14T09:11:31;9.60;99.90
45409;DHT22;31162;51.076;3.784;2023-03-14T09:13:56;9.80;99.90
45409;DHT22;31162;51.076;3.784;2023-03-14T09:16:22;10.30;99.90
45409;DHT22;31162;51.076;3.784;2023-03-14T09:18:48;10.60;99.90
45409;DHT22;31162;51.076;3.784;2023-03-14T09:21:15;10.30;99.90
45409;DHT22;31162;51.076;3.784;2023-03-14T09:23:41;10.00;99.90
45409;DHT22;31162;51.076;3.784;2023-03-14T09:26:07;9.90;99.90
45409;DHT22;31162;51.076;3.784;2023-03-14T09:28:33;9.60;99.90
45409;DHT22;31162;51.076;3.784;2023-03-14T09:31:06;9.50;99.90
45409;DHT22;31162;51.076;3.784;2023-03-14T09:33:31;9.40;99.90
45409;DHT22;31162;51.076;3.784;2023-03-14T09:36:00;9.30;99.90
45409;DHT22;31162;51.076;3.784;2023-03-14T09:38:26;9.10;99.90
45409;DHT22;31162;51.076;3.784;2023-03-14T09:40:53;9.00;99.90
45409;DHT22;31162;51.076;3.784;2023-03-14T09:43:21;9.00;99.90
45409;DHT22;31162;51.076;3.784;2023-03-14T09:45:48;8.90;99.90
45409;DHT22;31162;51.076;3.784;2023-03-14T09:48:27;8.70;99.90
45409;DHT22;31162;51.076;3.784;2023-03-14T09:50:55;8.50;99.90
45409;DHT22;31162;51.076;3.784;2023-03-14T09:53:29;8.50;99.90
45409;DHT22;31162;51.076;3.784;2023-03-14T09:55:57;8.40;99.90
45409;DHT22;31162;51.076;3.784;2023-03-14T09:58:24;8.40;99.90
45409;DHT22;31162;51.076;3.784;2023-03-14T10:00:52;8.30;99.90
45409;DHT22;31162;51.076;3.784;2023-03-14T10:03:32;8.30;99.90
45409;DHT22;31162;51.076;3.784;2023-03-14T10:05:59;8.10;99.90
45409;DHT22;31162;51.076;3.784;2023-03-14T10:08:25;8.00;99.90
45409;DHT22;31162;51.076;3.784;2023-03-14T10:10:51;7.90;99.90
45409;DHT22;31162;51.076;3.784;2023-03-14T10:13:27;8.10;99.90
45409;DHT22;31162;51.076;3.784;2023-03-14T10:16:02;8.30;99.90
45409;DHT22;31162;51.076;3.784;2023-03-14T10:18:31;8.50;99.90
45409;DHT22;31162;51.076;3.784;2023-03-14T10:21:16;8.50;99.90
45409;DHT22;31162;51.076;3.784;2023-03-14T10:23:42;8.50;99.90
45409;DHT22;31162;51.076;3.784;2023-03-14T10:26:16;8.40;99.90
45409;DHT22;31162;51.076;3.784;2023-03-14T10:28:49;8.30;99.90
45409;DHT22;31162;51.076;3.784;2023-03-14T10:31:17;8.30;99.90
45409;DHT22;31162;51.076;3.784;2023-03-14T10:34:00;8.30;99.90
45409;DHT22;31162;51.076;3.784;2023-03-14T10:36:31;8.50;99.90
45409;DHT22;31162;51.076;3.784;2023-03-14T10:39:22;8.60;99.90
45409;DHT22;31162;51.076;3.784;2023-03-14T10:41:52;8.60;99.90
45409;DHT22;31162;51.076;3.784;2023-03-14T10:44:21;8.70;99.90
45409;DHT22;31162;51.076;3.784;2023-03-14T10:47:00;8.70;99.90
45409;DHT22;31162;51.076;3.784;2023-03-14T10:49:32;8.60;99.90
45409;DHT22;31162;51.076;3.784;2023-03-14T10:57:20;8.30;99.90
45409;DHT22;31162;51.076;3.784;2023-03-14T10:59:46;8.30;99.90
45409;DHT22;31162;51.076;3.784;2023-03-14T11:04:53;8.50;99.90
45409;DHT22;31162;51.076;3.784;2023-03-14T11:07:29;8.90;99.90
45409;DHT22;31162;51.076;3.784;2023-03-14T11:10:35;9.40;99.90
45409;DHT22;31162;51.076;3.784;2023-03-14T11:21:25;10.60;99.90
45409;DHT22;31162;51.076;3.784;2023-03-14T11:24:21;11.00;99.90
45409;DHT22;31162;51.076;3.784;2023-03-14T11:29:41;11.60;99.90
45409;DHT22;31162;51.076;3.784;2023-03-14T11:32:40;11.10;99.90
45409;DHT22;31162;51.076;3.784;2023-03-14T11:35:17;10.80;99.90
45409;DHT22;31162;51.076;3.784;2023-03-14T11:40:37;10.30;99.90
45409;DHT22;31162;51.076;3.784;2023-03-14T11:46:16;8.60;99.90
45409;DHT22;31162;51.076;3.784;2023-03-14T11:48:44;7.80;99.90
45409;DHT22;31162;51.076;3.784;2023-03-14T11:51:24;7.50;99.90
45409;DHT22;31162;51.076;3.784;2023-03-14T11:59:09;7.80;99.90
45409;DHT22;31162;51.076;3.784;2023-03-14T12:07:19;8.10;99.90
45409;DHT22;31162;51.076;3.784;2023-03-14T12:09:46;8.20;99.90
45409;DHT22;31162;51.076;3.784;2023-03-14T12:12:16;8.40;99.90
45409;DHT22;31162;51.076;3.784;2023-03-14T12:14:46;8.50;99.90
45409;DHT22;31162;51.076;3.784;2023-03-14T12:17:26;8.40;99.90
45409;DHT22;31162;51.076;3.784;2023-03-14T12:22:37;7.70;99.90
45409;DHT22;31162;51.076;3.784;2023-03-14T12:25:27;7.70;99.90
45409;DHT22;31162;51.076;3.784;2023-03-14T12:35:37;7.80;99.90
45409;DHT22;31162;51.076;3.784;2023-03-14T12:43:51;7.80;99.90
45409;DHT22;31162;51.076;3.784;2023-03-14T12:48:49;6.90;99.90
45409;DHT22;31162;51.076;3.784;2023-03-14T12:51:17;6.70;99.90
45409;DHT22;31162;51.076;3.784;2023-03-14T12:56:25;6.80;99.90
45409;DHT22;31162;51.076;3.784;2023-03-14T12:59:30;6.80;99.90
45409;DHT22;31162;51.076;3.784;2023-03-14T13:02:00;6.80;99.90
45409;DHT22;31162;51.076;3.784;2023-03-14T13:04:31;6.60;99.90
45409;DHT22;31162;51.076;3.784;2023-03-14T13:07:00;6.60;99.90
45409;DHT22;31162;51.076;3.784;2023-03-14T13:11:56;6.70;99.90
45409;DHT22;31162;51.076;3.784;2023-03-14T13:14:28;7.00;99.90
45409;DHT22;31162;51.076;3.784;2023-03-14T13:16:54;7.40;99.90
45409;DHT22;31162;51.076;3.784;2023-03-14T13:19:23;7.60;99.90
45409;DHT22;31162;51.076;3.784;2023-03-14T13:21:50;7.90;99.90
45409;DHT22;31162;51.076;3.784;2023-03-14T13:24:24;7.70;99.90
45409;DHT22;31162;51.076;3.784;2023-03-14T13:26:55;7.30;99.90
45409;DHT22;31162;51.076;3.784;2023-03-14T13:29:31;7.30;99.90
45409;DHT22;31162;51.076;3.784;2023-03-14T13:32:02;7.50;99.90
45409;DHT22;31162;51.076;3.784;2023-03-14T13:34:32;8.00;99.90
45409;DHT22;31162;51.076;3.784;2023-03-14T13:36:59;8.40;99.90
45409;DHT22;31162;51.076;3.784;2023-03-14T13:39:26;8.70;99.90
45409;DHT22;31162;51.076;3.784;2023-03-14T13:42:00;8.90;99.90
45409;DHT22;31162;51.076;3.784;2023-03-14T13:44:38;8.70;99.90
45409;DHT22;31162;51.076;3.784;2023-03-14T13:47:09;8.30;99.90
45409;DHT22;31162;51.076;3.784;2023-03-14T13:49:37;8.20;99.90
45409;DHT22;31162;51.076;3.784;2023-03-14T13:52:03;8.10;99.90
45409;DHT22;31162;51.076;3.784;2023-03-14T13:54:31;7.80;99.90
45409;DHT22;31162;51.076;3.784;2023-03-14T13:57:04;7.50;99.90
45409;DHT22;31162;51.076;3.784;2023-03-14T13:59:32;7.20;99.90
45409;DHT22;31162;51.076;3.784;2023-03-14T14:02:00;7.00;99.90
45409;DHT22;31162;51.076;3.784;2023-03-14T14:04:29;6.90;99.90
45409;DHT22;31162;51.076;3.784;2023-03-14T14:06:59;6.90;99.90
45409;DHT22;31162;51.076;3.784;2023-03-14T14:09:40;7.00;99.90
45409;DHT22;31162;51.076;3.784;2023-03-14T14:12:10;6.90;99.90
45409;DHT22;31162;51.076;3.784;2023-03-14T14:14:45;7.00;99.90
45409;DHT22;31162;51.076;3.784;2023-03-14T14:17:15;6.90;99.90
45409;DHT22;31162;51.076;3.784;2023-03-14T14:19:43;7.00;99.90
45409;DHT22;31162;51.076;3.784;2023-03-14T14:22:10;7.10;99.90
45409;DHT22;31162;51.076;3.784;2023-03-14T14:24:36;7.40;99.90
45409;DHT22;31162;51.076;3.784;2023-03-14T14:27:14;7.60;99.90
45409;DHT22;31162;51.076;3.784;2023-03-14T14:29:41;7.70;99.90
45409;DHT22;31162;51.076;3.784;2023-03-14T14:34:59;8.20;99.90
45409;DHT22;31162;51.076;3.784;2023-03-14T14:37:33;8.30;99.90
45409;DHT22;31162;51.076;3.784;2023-03-14T14:40:06;8.60;99.90
45409;DHT22;31162;51.076;3.784;2023-03-14T14:42:33;8.60;99.90
45409;DHT22;31162;51.076;3.784;2023-03-14T14:44:59;8.70;99.90
45409;DHT22;31162;51.076;3.784;2023-03-14T14:47:27;8.90;99.90
45409;DHT22;31162;51.076;3.784;2023-03-14T14:49:55;8.90;99.90
45409;DHT22;31162;51.076;3.784;2023-03-14T14:52:43;9.00;99.90
45409;DHT22;31162;51.076;3.784;2023-03-14T14:55:19;9.00;99.90
45409;DHT22;31162;51.076;3.784;2023-03-14T14:57:51;8.70;99.90
45409;DHT22;31162;51.076;3.784;2023-03-14T15:00:23;8.50;99.90
45409;DHT22;31162;51.076;3.784;2023-03-14T15:02:51;8.50;99.90
45409;DHT22;31162;51.076;3.784;2023-03-14T15:05:23;8.50;99.90
45409;DHT22;31162;51.076;3.784;2023-03-14T15:07:49;8.40;99.90
45409;DHT22;31162;51.076;3.784;2023-03-14T15:10:20;8.20;99.90
45409;DHT22;31162;51.076;3.784;2023-03-14T15:12:46;8.20;99.90
45409;DHT22;31162;51.076;3.784;2023-03-14T15:15:14;8.20;99.90
45409;DHT22;31162;51.076;3.784;2023-03-14T15:17:40;8.00;99.90
45409;DHT22;31162;51.076;3.784;2023-03-14T15:20:11;8.00;99.90
45409;DHT22;31162;51.076;3.784;2023-03-14T15:22:39;8.00;99.90
45409;DHT22;31162;51.076;3.784;2023-03-14T15:25:05;8.10;99.90
45409;DHT22;31162;51.076;3.784;2023-03-14T15:27:31;8.20;99.90
45409;DHT22;31162;51.076;3.784;2023-03-14T15:29:58;8.20;99.90
45409;DHT22;31162;51.076;3.784;2023-03-14T15:32:24;8.10;99.90
45409;DHT22;31162;51.076;3.784;2023-03-14T15:34:55;8.10;99.90
45409;DHT22;31162;51.076;3.784;2023-03-14T15:37:21;8.20;99.90
45409;DHT22;31162;51.076;3.784;2023-03-14T15:39:47;8.20;99.90
45409;DHT22;31162;51.076;3.784;2023-03-14T15:42:13;8.20;99.90
45409;DHT22;31162;51.076;3.784;2023-03-14T15:44:38;8.20;99.90
45409;DHT22;31162;51.076;3.784;2023-03-14T15:47:05;8.20;99.90
45409;DHT22;31162;51.076;3.784;2023-03-14T15:49:31;8.30;99.90
45409;DHT22;31162;51.076;3.784;2023-03-14T15:51:57;8.30;99.90
45409;DHT22;31162;51.076;3.784;2023-03-14T15:54:23;8.40;99.90
45409;DHT22;31162;51.076;3.784;2023-03-14T15:56:49;8.60;99.90
45409;DHT22;31162;51.076;3.784;2023-03-14T15:59:14;8.50;99.90
45409;DHT22;31162;51.076;3.784;2023-03-14T16:01:40;8.60;99.90
45409;DHT22;31162;51.076;3.784;2023-03-14T16:04:06;8.80;99.90
45409;DHT22;31162;51.076;3.784;2023-03-14T16:06:31;8.90;99.90
45409;DHT22;31162;51.076;3.784;2023-03-14T16:08:57;8.90;99.90
45409;DHT22;31162;51.076;3.784;2023-03-14T16:11:23;8.80;99.90
45409;DHT22;31162;51.076;3.784;2023-03-14T16:13:49;8.80;99.90
45409;DHT22;31162;51.076;3.784;2023-03-14T16:16:15;8.70;99.90
45409;DHT22;31162;51.076;3.784;2023-03-14T16:18:41;8.60;99.90
45409;DHT22;31162;51.076;3.784;2023-03-14T16:21:15;8.50;99.90
45409;DHT22;31162;51.076;3.784;2023-03-14T16:23:42;8.50;99.90
45409;DHT22;31162;51.076;3.784;2023-03-14T16:26:13;8.40;99.90
45409;DHT22;31162;51.076;3.784;2023-03-14T16:28:43;8.30;99.90
45409;DHT22;31162;51.076;3.784;2023-03-14T16:31:11;8.20;99.90
45409;DHT22;31162;51.076;3.784;2023-03-14T16:33:38;8.10;99.90
45409;DHT22;31162;51.076;3.784;2023-03-14T16:36:06;8.10;99.90
45409;DHT22;31162;51.076;3.784;2023-03-14T16:38:37;8.10;99.90
45409;DHT22;31162;51.076;3.784;2023-03-14T16:41:10;8.20;99.90
45409;DHT22;31162;51.076;3.784;2023-03-14T16:43:37;8.20;99.90
45409;DHT22;31162;51.076;3.784;2023-03-14T16:46:03;8.30;99.90
45409;DHT22;31162;51.076;3.784;2023-03-14T16:48:29;8.40;99.90
45409;DHT22;31162;51.076;3.784;2023-03-14T16:50:55;8.50;99.90
45409;DHT22;31162;51.076;3.784;2023-03-14T16:53:21;8.60;99.90
45409;DHT22;31162;51.076;3.784;2023-03-14T16:55:48;8.70;99.90